DAL386 KDTW-KSYR
Flight info
| Callsign | DAL386 |
|---|---|
| Flight time | 0h 59m |
| Altitude | 35000 |
| Route | HHOWE4 LNCON JHW |
| Aircraft | A320/M-SDE3FGHIRWY/LB1 |
Departure
| Time | 2026-04-26 23:04 |
|---|---|
| Airport | Detroit Metropolitan Wayne County Airport (KDTW) |
Arrival
| Time | 2026-04-27 00:03 |
|---|---|
| Airport | Syracuse Hancock International Airport (KSYR) |
| Time | Latitude | Longitude | Altitude | Speed | Heading |
|---|---|---|---|---|---|
| 2026-04-26 22:24 | 42.20535 | -83.35967 | 647 ft | 0 kts | 297° |
| 2026-04-26 22:54 | 42.20525 | -83.35941 | 646 ft | 4 kts | 297° |
| 2026-04-26 22:55 | 42.20515 | -83.35916 | 647 ft | 4 kts | 283° |
| 2026-04-26 22:55 | 42.20520 | -83.35892 | 646 ft | 4 kts | 211° |
| 2026-04-26 22:55 | 42.20539 | -83.35877 | 646 ft | 1 kts | 208° |
| 2026-04-26 22:59 | 42.20521 | -83.35891 | 648 ft | 9 kts | 208° |
| 2026-04-26 22:59 | 42.20448 | -83.35944 | 646 ft | 12 kts | 208° |
| 2026-04-26 23:00 | 42.20380 | -83.35994 | 646 ft | 10 kts | 208° |
| 2026-04-26 23:00 | 42.20322 | -83.36037 | 646 ft | 9 kts | 208° |
| 2026-04-26 23:00 | 42.20273 | -83.36072 | 655 ft | 8 kts | 208° |
| 2026-04-26 23:00 | 42.20199 | -83.36127 | 646 ft | 14 kts | 208° |
| 2026-04-26 23:01 | 42.20117 | -83.36162 | 647 ft | 12 kts | 176° |
| 2026-04-26 23:01 | 42.20070 | -83.36083 | 646 ft | 13 kts | 95° |
| 2026-04-26 23:01 | 42.20072 | -83.35954 | 646 ft | 15 kts | 88° |
| 2026-04-26 23:01 | 42.20075 | -83.35793 | 646 ft | 19 kts | 90° |
| 2026-04-26 23:02 | 42.20078 | -83.35578 | 647 ft | 26 kts | 89° |
| 2026-04-26 23:02 | 42.20081 | -83.35339 | 647 ft | 25 kts | 88° |
| 2026-04-26 23:02 | 42.20081 | -83.35124 | 649 ft | 14 kts | 110° |
| 2026-04-26 23:02 | 42.19987 | -83.35120 | 646 ft | 17 kts | 207° |
| 2026-04-26 23:03 | 42.19843 | -83.35226 | 647 ft | 26 kts | 209° |
| 2026-04-26 23:03 | 42.19693 | -83.35336 | 648 ft | 22 kts | 200° |
| 2026-04-26 23:03 | 42.19605 | -83.35216 | 647 ft | 13 kts | 110° |
| 2026-04-26 23:03 | 42.19631 | -83.35136 | 646 ft | 12 kts | 35° |
| 2026-04-26 23:04 | 42.19818 | -83.34991 | 644 ft | 64 kts | 29° |
| 2026-04-26 23:04 | 42.20408 | -83.34557 | 650 ft | 126 kts | 28° |
| 2026-04-26 23:04 | 42.21330 | -83.33881 | 714 ft | 168 kts | 33° |
| 2026-04-26 23:04 | 42.22341 | -83.33180 | 1427 ft | 163 kts | 34° |
| 2026-04-26 23:05 | 42.23266 | -83.32336 | 2077 ft | 162 kts | 53° |
| 2026-04-26 23:05 | 42.23874 | -83.31011 | 2562 ft | 172 kts | 62° |
| 2026-04-26 23:05 | 42.24653 | -83.29640 | 2968 ft | 197 kts | 50° |
| 2026-04-26 23:05 | 42.25684 | -83.28249 | 3386 ft | 222 kts | 47° |
| 2026-04-26 23:06 | 42.26851 | -83.26726 | 3834 ft | 245 kts | 46° |
| 2026-04-26 23:06 | 42.28099 | -83.25086 | 4573 ft | 255 kts | 46° |
| 2026-04-26 23:06 | 42.29367 | -83.23383 | 5441 ft | 259 kts | 46° |
| 2026-04-26 23:06 | 42.30647 | -83.21627 | 6251 ft | 266 kts | 45° |
| 2026-04-26 23:07 | 42.31901 | -83.19749 | 7031 ft | 274 kts | 53° |
| 2026-04-26 23:07 | 42.32539 | -83.18217 | 7533 ft | 280 kts | 66° |
| 2026-04-26 23:07 | 42.32982 | -83.14731 | 8512 ft | 293 kts | 93° |
| 2026-04-26 23:07 | 42.32637 | -83.12000 | 9343 ft | 297 kts | 101° |
| 2026-04-26 23:08 | 42.32227 | -83.09242 | 10170 ft | 302 kts | 101° |
| 2026-04-26 23:08 | 42.31801 | -83.06354 | 10467 ft | 325 kts | 101° |
| 2026-04-26 23:08 | 42.31349 | -83.03260 | 10820 ft | 343 kts | 101° |
| 2026-04-26 23:08 | 42.30883 | -83.00063 | 11482 ft | 350 kts | 101° |
| 2026-04-26 23:09 | 42.30394 | -82.96831 | 12212 ft | 354 kts | 102° |
| 2026-04-26 23:09 | 42.29859 | -82.93564 | 12945 ft | 358 kts | 103° |
| 2026-04-26 23:09 | 42.29296 | -82.90267 | 13678 ft | 362 kts | 103° |
| 2026-04-26 23:09 | 42.28718 | -82.86934 | 14350 ft | 366 kts | 103° |
| 2026-04-26 23:10 | 42.28133 | -82.83563 | 14970 ft | 371 kts | 103° |
| 2026-04-26 23:10 | 42.27544 | -82.80150 | 15590 ft | 375 kts | 103° |
| 2026-04-26 23:10 | 42.26959 | -82.76742 | 16182 ft | 380 kts | 103° |
| 2026-04-26 23:10 | 42.26361 | -82.73249 | 16799 ft | 384 kts | 103° |
| 2026-04-26 23:11 | 42.25761 | -82.69713 | 17389 ft | 389 kts | 103° |
| 2026-04-26 23:11 | 42.25197 | -82.66124 | 17981 ft | 393 kts | 98° |
| 2026-04-26 23:11 | 42.25019 | -82.62424 | 18548 ft | 397 kts | 87° |
| 2026-04-26 23:11 | 42.25170 | -82.58684 | 19068 ft | 401 kts | 85° |
| 2026-04-26 23:12 | 42.25328 | -82.54915 | 19619 ft | 404 kts | 86° |
| 2026-04-26 23:12 | 42.25431 | -82.52350 | 19996 ft | 405 kts | 86° |
| 2026-04-26 23:12 | 42.25579 | -82.48545 | 20550 ft | 408 kts | 86° |
| 2026-04-26 23:12 | 42.25708 | -82.43444 | 21275 ft | 412 kts | 88° |
| 2026-04-26 23:13 | 42.25711 | -82.40871 | 21638 ft | 414 kts | 89° |
| 2026-04-26 23:13 | 42.25664 | -82.36967 | 22188 ft | 417 kts | 90° |
| 2026-04-26 23:13 | 42.25584 | -82.33037 | 22736 ft | 420 kts | 90° |
| 2026-04-26 23:13 | 42.25500 | -82.29088 | 23269 ft | 423 kts | 90° |
| 2026-04-26 23:14 | 42.25423 | -82.25102 | 23779 ft | 426 kts | 90° |
| 2026-04-26 23:14 | 42.25360 | -82.21087 | 24201 ft | 429 kts | 90° |
| 2026-04-26 23:14 | 42.25310 | -82.17046 | 24620 ft | 432 kts | 89° |
| 2026-04-26 23:14 | 42.25269 | -82.12982 | 25028 ft | 434 kts | 89° |
| 2026-04-26 23:15 | 42.25227 | -82.08893 | 25423 ft | 437 kts | 89° |
| 2026-04-26 23:15 | 42.25178 | -82.04779 | 25810 ft | 440 kts | 89° |
| 2026-04-26 23:15 | 42.25123 | -82.00642 | 26189 ft | 442 kts | 89° |
| 2026-04-26 23:15 | 42.25066 | -81.96480 | 26562 ft | 445 kts | 89° |
| 2026-04-26 23:16 | 42.25010 | -81.92295 | 26934 ft | 447 kts | 89° |
| 2026-04-26 23:16 | 42.24953 | -81.88096 | 27301 ft | 450 kts | 89° |
| 2026-04-26 23:16 | 42.24893 | -81.83867 | 27663 ft | 452 kts | 89° |
| 2026-04-26 23:16 | 42.24831 | -81.79615 | 28013 ft | 454 kts | 89° |
| 2026-04-26 23:17 | 42.24766 | -81.75341 | 28366 ft | 457 kts | 89° |
| 2026-04-26 23:17 | 42.24698 | -81.71043 | 28707 ft | 459 kts | 89° |
| 2026-04-26 23:17 | 42.24628 | -81.66721 | 29041 ft | 462 kts | 89° |
| 2026-04-26 23:17 | 42.24557 | -81.62379 | 29390 ft | 464 kts | 89° |
| 2026-04-26 23:18 | 42.24483 | -81.58020 | 29732 ft | 466 kts | 89° |
| 2026-04-26 23:18 | 42.24407 | -81.53642 | 30041 ft | 468 kts | 89° |
| 2026-04-26 23:18 | 42.24332 | -81.49243 | 30332 ft | 470 kts | 89° |
| 2026-04-26 23:18 | 42.24267 | -81.44823 | 30582 ft | 472 kts | 89° |
| 2026-04-26 23:19 | 42.24209 | -81.40386 | 30823 ft | 474 kts | 88° |
| 2026-04-26 23:19 | 42.24154 | -81.35931 | 31064 ft | 476 kts | 88° |
| 2026-04-26 23:19 | 42.24096 | -81.31459 | 31293 ft | 478 kts | 88° |
| 2026-04-26 23:19 | 42.24035 | -81.26970 | 31532 ft | 479 kts | 88° |
| 2026-04-26 23:20 | 42.23970 | -81.22467 | 31771 ft | 480 kts | 88° |
| 2026-04-26 23:20 | 42.23899 | -81.17964 | 32092 ft | 480 kts | 88° |
| 2026-04-26 23:20 | 42.23826 | -81.13469 | 32408 ft | 479 kts | 88° |
| 2026-04-26 23:20 | 42.23754 | -81.08978 | 32710 ft | 479 kts | 88° |
| 2026-04-26 23:21 | 42.23683 | -81.04499 | 33006 ft | 478 kts | 88° |
| 2026-04-26 23:21 | 42.23611 | -81.00013 | 33302 ft | 478 kts | 88° |
| 2026-04-26 23:21 | 42.23536 | -80.95530 | 33598 ft | 478 kts | 88° |
| 2026-04-26 23:21 | 42.23459 | -80.91049 | 33897 ft | 478 kts | 88° |
| 2026-04-26 23:22 | 42.23377 | -80.86570 | 34220 ft | 477 kts | 87° |
| 2026-04-26 23:22 | 42.23290 | -80.82097 | 34498 ft | 477 kts | 87° |
| 2026-04-26 23:22 | 42.23200 | -80.77628 | 34768 ft | 476 kts | 87° |
| 2026-04-26 23:22 | 42.23112 | -80.73227 | 35028 ft | 475 kts | 87° |
| 2026-04-26 23:23 | 42.23023 | -80.68770 | 35187 ft | 475 kts | 87° |
| 2026-04-26 23:23 | 42.22841 | -80.59963 | 35225 ft | 467 kts | 87° |
| 2026-04-26 23:24 | 42.22665 | -80.51216 | 35225 ft | 466 kts | 87° |
| 2026-04-26 23:24 | 42.22484 | -80.42486 | 35219 ft | 465 kts | 87° |
| 2026-04-26 23:25 | 42.22291 | -80.33776 | 35218 ft | 465 kts | 87° |
| 2026-04-26 23:25 | 42.22090 | -80.25058 | 35216 ft | 465 kts | 87° |
| 2026-04-26 23:26 | 42.21873 | -80.16344 | 35226 ft | 465 kts | 88° |
| 2026-04-26 23:26 | 42.21648 | -80.07638 | 35221 ft | 464 kts | 87° |
| 2026-04-26 23:27 | 42.21431 | -79.98940 | 35213 ft | 464 kts | 87° |
| 2026-04-26 23:27 | 42.21210 | -79.90258 | 35211 ft | 464 kts | 88° |
| 2026-04-26 23:28 | 42.20973 | -79.81563 | 35209 ft | 464 kts | 88° |
| 2026-04-26 23:28 | 42.20735 | -79.72864 | 35221 ft | 464 kts | 88° |
| 2026-04-26 23:29 | 42.20488 | -79.64161 | 35223 ft | 464 kts | 88° |
| 2026-04-26 23:29 | 42.20232 | -79.55462 | 35230 ft | 464 kts | 88° |
| 2026-04-26 23:30 | 42.19968 | -79.46762 | 35225 ft | 464 kts | 88° |
| 2026-04-26 23:30 | 42.19700 | -79.38065 | 35242 ft | 464 kts | 88° |
| 2026-04-26 23:31 | 42.19430 | -79.29432 | 35237 ft | 463 kts | 88° |
| 2026-04-26 23:31 | 42.19147 | -79.20758 | 35221 ft | 463 kts | 88° |
| 2026-04-26 23:32 | 42.19349 | -79.12166 | 35215 ft | 453 kts | 74° |
| 2026-04-26 23:32 | 42.21252 | -79.04208 | 35215 ft | 443 kts | 62° |
| 2026-04-26 23:33 | 42.23587 | -78.96524 | 35209 ft | 443 kts | 62° |
| 2026-04-26 23:33 | 42.25909 | -78.88821 | 35209 ft | 443 kts | 62° |
| 2026-04-26 23:34 | 42.28218 | -78.81102 | 35201 ft | 443 kts | 62° |
| 2026-04-26 23:34 | 42.30510 | -78.73380 | 35196 ft | 443 kts | 62° |
| 2026-04-26 23:35 | 42.32817 | -78.65651 | 35223 ft | 444 kts | 62° |
| 2026-04-26 23:35 | 42.35124 | -78.57918 | 35221 ft | 444 kts | 63° |
| 2026-04-26 23:36 | 42.37419 | -78.50171 | 35216 ft | 444 kts | 63° |
| 2026-04-26 23:36 | 42.39702 | -78.42416 | 35215 ft | 444 kts | 63° |
| 2026-04-26 23:37 | 42.41980 | -78.34663 | 35211 ft | 443 kts | 63° |
| 2026-04-26 23:37 | 42.44250 | -78.26902 | 35216 ft | 444 kts | 63° |
| 2026-04-26 23:37 | 42.45388 | -78.23022 | 35091 ft | 445 kts | 63° |
| 2026-04-26 23:38 | 42.46533 | -78.19125 | 34841 ft | 446 kts | 63° |
| 2026-04-26 23:38 | 42.47676 | -78.15221 | 34596 ft | 446 kts | 63° |
| 2026-04-26 23:38 | 42.48814 | -78.11316 | 34364 ft | 445 kts | 62° |
| 2026-04-26 23:38 | 42.49948 | -78.07419 | 34115 ft | 444 kts | 62° |
| 2026-04-26 23:39 | 42.51076 | -78.03533 | 33834 ft | 442 kts | 62° |
| 2026-04-26 23:39 | 42.52198 | -77.99663 | 33559 ft | 440 kts | 62° |
| 2026-04-26 23:39 | 42.53309 | -77.95818 | 33162 ft | 436 kts | 63° |
| 2026-04-26 23:39 | 42.54408 | -77.92002 | 32616 ft | 433 kts | 62° |
| 2026-04-26 23:40 | 42.55502 | -77.88209 | 32071 ft | 430 kts | 62° |
| 2026-04-26 23:40 | 42.56574 | -77.84492 | 31551 ft | 428 kts | 62° |
| 2026-04-26 23:40 | 42.57664 | -77.80703 | 30996 ft | 425 kts | 62° |
| 2026-04-26 23:40 | 42.58722 | -77.77019 | 30482 ft | 423 kts | 62° |
| 2026-04-26 23:41 | 42.59787 | -77.73308 | 29916 ft | 421 kts | 63° |
| 2026-04-26 23:41 | 42.60841 | -77.69625 | 29409 ft | 416 kts | 63° |
| 2026-04-26 23:41 | 42.61884 | -77.65980 | 28926 ft | 412 kts | 63° |
| 2026-04-26 23:41 | 42.62913 | -77.62376 | 28435 ft | 408 kts | 63° |
| 2026-04-26 23:42 | 42.63936 | -77.58789 | 27984 ft | 404 kts | 63° |
| 2026-04-26 23:42 | 42.65871 | -77.51672 | 27057 ft | 402 kts | 68° |
| 2026-04-26 23:42 | 42.66746 | -77.48092 | 26577 ft | 397 kts | 64° |
| 2026-04-26 23:43 | 42.67737 | -77.44613 | 26136 ft | 393 kts | 62° |
| 2026-04-26 23:43 | 42.68780 | -77.41199 | 25696 ft | 390 kts | 62° |
| 2026-04-26 23:43 | 42.69823 | -77.37813 | 25257 ft | 387 kts | 62° |
| 2026-04-26 23:43 | 42.70841 | -77.34439 | 24826 ft | 385 kts | 63° |
| 2026-04-26 23:44 | 42.71829 | -77.31067 | 24398 ft | 383 kts | 63° |
| 2026-04-26 23:44 | 42.72789 | -77.27702 | 24021 ft | 379 kts | 64° |
| 2026-04-26 23:44 | 42.73722 | -77.24381 | 23326 ft | 377 kts | 64° |
| 2026-04-26 23:44 | 42.74670 | -77.20998 | 22621 ft | 382 kts | 64° |
| 2026-04-26 23:45 | 42.75594 | -77.17667 | 22342 ft | 374 kts | 64° |
| 2026-04-26 23:45 | 42.76508 | -77.14366 | 21870 ft | 371 kts | 64° |
| 2026-04-26 23:45 | 42.77418 | -77.11090 | 21406 ft | 369 kts | 64° |
| 2026-04-26 23:45 | 42.78327 | -77.07835 | 20934 ft | 367 kts | 64° |
| 2026-04-26 23:46 | 42.79234 | -77.04600 | 20480 ft | 365 kts | 64° |
| 2026-04-26 23:46 | 42.80137 | -77.01380 | 20024 ft | 363 kts | 64° |
| 2026-04-26 23:46 | 42.81034 | -76.98174 | 19570 ft | 362 kts | 64° |
| 2026-04-26 23:46 | 42.81927 | -76.94979 | 19123 ft | 360 kts | 64° |
| 2026-04-26 23:47 | 42.82816 | -76.91793 | 18672 ft | 359 kts | 64° |
| 2026-04-26 23:47 | 42.83699 | -76.88614 | 18184 ft | 358 kts | 64° |
| 2026-04-26 23:47 | 42.84575 | -76.85451 | 17761 ft | 355 kts | 64° |
| 2026-04-26 23:47 | 42.85431 | -76.82347 | 17314 ft | 353 kts | 64° |
| 2026-04-26 23:48 | 42.86292 | -76.79224 | 16881 ft | 351 kts | 64° |
| 2026-04-26 23:48 | 42.87144 | -76.76129 | 16455 ft | 348 kts | 64° |
| 2026-04-26 23:48 | 42.87993 | -76.73044 | 16034 ft | 347 kts | 64° |
| 2026-04-26 23:48 | 42.88837 | -76.69974 | 15611 ft | 345 kts | 64° |
| 2026-04-26 23:49 | 42.89675 | -76.66920 | 15198 ft | 343 kts | 64° |
| 2026-04-26 23:49 | 42.90509 | -76.63884 | 14778 ft | 341 kts | 64° |
| 2026-04-26 23:49 | 42.91339 | -76.60863 | 14362 ft | 339 kts | 64° |
| 2026-04-26 23:49 | 42.92167 | -76.57859 | 13937 ft | 338 kts | 64° |
| 2026-04-26 23:50 | 42.92989 | -76.54870 | 13486 ft | 335 kts | 64° |
| 2026-04-26 23:50 | 42.93800 | -76.51907 | 13078 ft | 332 kts | 64° |
| 2026-04-26 23:50 | 42.94600 | -76.48968 | 12604 ft | 330 kts | 64° |
| 2026-04-26 23:50 | 42.95402 | -76.46026 | 12216 ft | 326 kts | 65° |
| 2026-04-26 23:51 | 42.96173 | -76.43183 | 12067 ft | 309 kts | 65° |
| 2026-04-26 23:51 | 42.96890 | -76.40522 | 11931 ft | 290 kts | 64° |
| 2026-04-26 23:51 | 42.97563 | -76.38022 | 11802 ft | 272 kts | 64° |
| 2026-04-26 23:51 | 42.98196 | -76.35677 | 11666 ft | 255 kts | 64° |
| 2026-04-26 23:52 | 42.98796 | -76.33458 | 11373 ft | 246 kts | 63° |
| 2026-04-26 23:52 | 42.99390 | -76.31289 | 10938 ft | 242 kts | 64° |
| 2026-04-26 23:52 | 42.99976 | -76.29141 | 10449 ft | 240 kts | 64° |
| 2026-04-26 23:52 | 43.00557 | -76.27007 | 9974 ft | 239 kts | 65° |
| 2026-04-26 23:53 | 43.01129 | -76.24895 | 9451 ft | 236 kts | 66° |
| 2026-04-26 23:53 | 43.01692 | -76.22809 | 8935 ft | 232 kts | 66° |
| 2026-04-26 23:53 | 43.02249 | -76.20751 | 8438 ft | 229 kts | 67° |
| 2026-04-26 23:53 | 43.02797 | -76.18724 | 7940 ft | 227 kts | 68° |
| 2026-04-26 23:54 | 43.03342 | -76.16711 | 7554 ft | 224 kts | 69° |
| 2026-04-26 23:54 | 43.03879 | -76.14725 | 7210 ft | 223 kts | 70° |
| 2026-04-26 23:54 | 43.04413 | -76.12743 | 6850 ft | 221 kts | 70° |
| 2026-04-26 23:54 | 43.04938 | -76.10760 | 6515 ft | 222 kts | 70° |
| 2026-04-26 23:55 | 43.05464 | -76.08794 | 6240 ft | 218 kts | 70° |
| 2026-04-26 23:55 | 43.05984 | -76.06832 | 5848 ft | 221 kts | 70° |
| 2026-04-26 23:55 | 43.06504 | -76.04869 | 5522 ft | 220 kts | 70° |
| 2026-04-26 23:55 | 43.07035 | -76.02900 | 5153 ft | 220 kts | 70° |
| 2026-04-26 23:56 | 43.07560 | -76.00959 | 4842 ft | 218 kts | 70° |
| 2026-04-26 23:56 | 43.08088 | -75.98999 | 4426 ft | 220 kts | 70° |
| 2026-04-26 23:56 | 43.08415 | -75.96957 | 4047 ft | 222 kts | 89° |
| 2026-04-26 23:56 | 43.08390 | -75.94838 | 3670 ft | 223 kts | 89° |
| 2026-04-26 23:57 | 43.08404 | -75.92741 | 3292 ft | 224 kts | 88° |
| 2026-04-26 23:57 | 43.08430 | -75.90578 | 2898 ft | 225 kts | 88° |
| 2026-04-26 23:57 | 43.08455 | -75.88485 | 2698 ft | 219 kts | 88° |
| 2026-04-26 23:57 | 43.08473 | -75.86395 | 2701 ft | 221 kts | 88° |
| 2026-04-26 23:58 | 43.08520 | -75.84290 | 2700 ft | 221 kts | 79° |
| 2026-04-26 23:58 | 43.09155 | -75.82437 | 2708 ft | 216 kts | 43° |
| 2026-04-26 23:58 | 43.10424 | -75.81450 | 2701 ft | 211 kts | 6° |
| 2026-04-26 23:58 | 43.11806 | -75.81861 | 2704 ft | 208 kts | 322° |
| 2026-04-26 23:59 | 43.12564 | -75.83488 | 2700 ft | 209 kts | 278° |
| 2026-04-26 23:59 | 43.12265 | -75.85411 | 2703 ft | 214 kts | 239° |
| 2026-04-26 23:59 | 43.11502 | -75.87173 | 2697 ft | 215 kts | 253° |
| 2026-04-26 23:59 | 43.11449 | -75.89167 | 2710 ft | 208 kts | 279° |
| 2026-04-27 00:00 | 43.11506 | -75.91063 | 2729 ft | 190 kts | 270° |
| 2026-04-27 00:00 | 43.11455 | -75.92793 | 2681 ft | 174 kts | 269° |
| 2026-04-27 00:00 | 43.11403 | -75.94405 | 2520 ft | 165 kts | 270° |
| 2026-04-27 00:00 | 43.11354 | -75.95931 | 2328 ft | 155 kts | 270° |
| 2026-04-27 00:01 | 43.11309 | -75.97344 | 2130 ft | 144 kts | 271° |
| 2026-04-27 00:01 | 43.11281 | -75.98235 | 2038 ft | 140 kts | 270° |
| 2026-04-27 00:01 | 43.11240 | -75.99551 | 1841 ft | 137 kts | 270° |
| 2026-04-27 00:01 | 43.11200 | -76.00839 | 1669 ft | 134 kts | 270° |
| 2026-04-27 00:02 | 43.11159 | -76.02127 | 1476 ft | 136 kts | 270° |
| 2026-04-27 00:02 | 43.11118 | -76.03425 | 1299 ft | 136 kts | 269° |
| 2026-04-27 00:02 | 43.11076 | -76.04715 | 1111 ft | 136 kts | 270° |
| 2026-04-27 00:02 | 43.11035 | -76.06001 | 932 ft | 134 kts | 270° |
| 2026-04-27 00:03 | 43.10992 | -76.07264 | 740 ft | 135 kts | 269° |
| 2026-04-27 00:03 | 43.10955 | -76.08536 | 574 ft | 133 kts | 271° |
| 2026-04-27 00:03 | 43.10913 | -76.09778 | 418 ft | 127 kts | 268° |
| 2026-04-27 00:03 | 43.10890 | -76.10628 | 425 ft | 46 kts | 267° |
| 2026-04-27 00:04 | 43.10887 | -76.10797 | 419 ft | 11 kts | 281° |
| 2026-04-27 00:04 | 43.10959 | -76.10823 | 422 ft | 0 kts | 27° |
| 2026-04-27 00:05 | 43.10979 | -76.10815 | 416 ft | 11 kts | 12° |
| 2026-04-27 00:05 | 43.11088 | -76.10819 | 422 ft | 17 kts | 358° |
| 2026-04-27 00:05 | 43.11214 | -76.10826 | 417 ft | 19 kts | 357° |
| 2026-04-27 00:06 | 43.11353 | -76.10842 | 417 ft | 20 kts | 352° |
| 2026-04-27 00:06 | 43.11436 | -76.10889 | 411 ft | 11 kts | 321° |
| 2026-04-27 00:06 | 43.11469 | -76.10925 | 421 ft | 0 kts | 321° |